Time;durP1;ratioP1;P1;durP2;ratioP2;P2;SDS_P1;SDS_P2;PMS_P1;PMS_P2;Temp;Humidity;BMP_temperature;BMP_pressure;BME280_temperature;BME280_humidity;BME280_pressure;Samples;Min_cycle;Max_cycle;Signal;HPM_P1;HPM_P2
2021/05/10 04:15:27;;;;;;;0.30;0.30;;;16.70;69.70;;;;;;4956527;28;20547;-74
2021/05/10 04:17:54;;;;;;;0.30;0.30;;;16.80;69.70;;;;;;4956681;28;20264;-74
2021/05/10 04:20:21;;;;;;;0.30;0.30;;;16.70;82.90;;;;;;4956337;28;20222;-74
2021/05/10 04:22:48;;;;;;;0.30;0.30;;;16.80;70.00;;;;;;4954924;28;20209;-76
2021/05/10 04:25:15;;;;;;;0.40;0.40;;;16.80;69.20;;;;;;4956255;28;20291;-74
2021/05/10 04:27:43;;;;;;;0.30;0.30;;;16.90;68.90;;;;;;4956403;28;20213;-76
2021/05/10 04:30:12;;;;;;;0.30;0.30;;;17.10;82.40;;;;;;4956273;28;20209;-75
2021/05/10 04:32:38;;;;;;;0.20;0.20;;;16.90;82.10;;;;;;4956558;28;20223;-74
2021/05/10 04:35:07;;;;;;;0.30;0.30;;;17.00;68.60;;;;;;4954591;28;20213;-77
2021/05/10 04:37:34;;;;;;;0.30;0.30;;;17.10;68.40;;;;;;4937951;28;20206;-76
2021/05/10 04:40:01;;;;;;;0.30;0.30;;;17.20;68.30;;;;;;4936499;29;20218;-76
2021/05/10 04:42:28;;;;;;;0.30;0.30;;;17.20;68.30;;;;;;4936970;29;20222;-75
2021/05/10 04:44:57;;;;;;;0.30;0.30;;;17.20;68.40;;;;;;4936790;29;20289;-76
2021/05/10 04:47:35;;;;;;;0.30;0.30;;;17.30;68.50;;;;;;4936852;29;20190;-76
2021/05/10 04:50:03;;;;;;;0.30;0.30;;;17.30;67.90;;;;;;4936835;29;20222;-74
2021/05/10 04:52:30;;;;;;;0.30;0.30;;;17.30;67.90;;;;;;4936725;29;20226;-75
2021/05/10 04:54:58;;;;;;;0.30;0.30;;;17.40;68.30;;;;;;4936893;29;20244;-75
2021/05/10 04:57:25;;;;;;;0.40;0.40;;;17.40;68.20;;;;;;4936599;29;20671;-75
2021/05/10 04:59:52;;;;;;;0.40;0.40;;;17.50;67.70;;;;;;4936659;29;20237;-75
2021/05/10 05:02:20;;;;;;;0.30;0.30;;;17.50;67.70;;;;;;4937273;29;20222;-77
2021/05/10 05:04:47;;;;;;;0.30;0.30;;;17.50;68.00;;;;;;4936105;29;20533;-75
2021/05/10 05:07:14;;;;;;;0.30;0.30;;;17.60;67.50;;;;;;4935358;29;20206;-77
2021/05/10 05:09:41;;;;;;;0.40;0.40;;;17.80;67.50;;;;;;4936141;29;20201;-76
2021/05/10 05:12:08;;;;;;;0.30;0.30;;;17.90;67.60;;;;;;4935700;29;20234;-75
2021/05/10 05:14:35;;;;;;;0.20;0.20;;;18.10;67.10;;;;;;4936936;29;20202;-75
2021/05/10 05:17:02;;;;;;;0.30;0.30;;;18.20;66.80;;;;;;4936888;29;20688;-75
2021/05/10 05:19:29;;;;;;;0.30;0.30;;;18.40;66.30;;;;;;4935384;29;20212;-75
2021/05/10 05:21:56;;;;;;;0.30;0.30;;;18.40;65.80;;;;;;4935453;29;20281;-75
2021/05/10 05:24:23;;;;;;;0.30;0.30;;;18.50;66.20;;;;;;4934496;29;20264;-75
2021/05/10 05:26:50;;;;;;;0.30;0.30;;;18.60;66.20;;;;;;4935797;29;20202;-75
2021/05/10 05:29:20;;;;;;;0.30;0.30;;;18.60;65.30;;;;;;4935963;29;20272;-75
2021/05/10 05:31:47;;;;;;;0.30;0.30;;;18.60;65.80;;;;;;4935782;29;20281;-75
2021/05/10 05:34:13;;;;;;;0.20;0.20;;;18.80;66.00;;;;;;4935882;29;20703;-75
2021/05/10 05:36:41;;;;;;;0.30;0.30;;;18.90;65.50;;;;;;4936063;29;20607;-76
2021/05/10 05:39:08;;;;;;;0.30;0.30;;;19.00;65.70;;;;;;4935303;29;20234;-76
2021/05/10 05:41:35;;;;;;;0.20;0.20;;;19.00;65.30;;;;;;4935813;29;20656;-76
2021/05/10 05:44:03;;;;;;;0.30;0.30;;;18.90;65.00;;;;;;4936123;29;20269;-76
2021/05/10 05:46:33;;;;;;;0.30;0.30;;;19.00;64.90;;;;;;4936224;29;20206;-75
2021/05/10 05:49:00;;;;;;;0.30;0.30;;;19.10;65.20;;;;;;4936183;29;20213;-75
2021/05/10 05:51:27;;;;;;;0.30;0.30;;;19.20;64.70;;;;;;4935823;29;20222;-76
2021/05/10 05:53:56;;;;;;;0.20;0.20;;;19.30;63.60;;;;;;4935770;29;20649;-75
2021/05/10 05:56:23;;;;;;;0.20;0.20;;;19.30;63.80;;;;;;4935876;29;20265;-75
2021/05/10 05:58:50;;;;;;;0.40;0.40;;;19.40;63.50;;;;;;4935584;29;20229;-76
2021/05/10 06:01:17;;;;;;;0.20;0.20;;;19.40;64.20;;;;;;4935360;29;20703;-76
2021/05/10 06:03:44;;;;;;;0.30;0.30;;;19.40;63.80;;;;;;4935604;29;20583;-76
2021/05/10 06:06:11;;;;;;;0.20;0.20;;;19.50;63.50;;;;;;4935795;29;20206;-75
2021/05/10 06:08:39;;;;;;;0.20;0.20;;;19.50;64.00;;;;;;4935617;29;20253;-75
2021/05/10 06:11:07;;;;;;;0.40;0.40;;;19.60;63.10;;;;;;4935441;29;20234;-76
2021/05/10 06:13:34;;;;;;;0.28;0.28;;;19.70;63.90;;;;;;4935635;29;20253;-75
2021/05/10 06:16:01;;;;;;;0.30;0.30;;;19.80;62.60;;;;;;4935419;29;20277;-75
2021/05/10 06:18:28;;;;;;;0.20;0.20;;;19.90;62.60;;;;;;4935455;29;20213;-75
2021/05/10 06:21:00;;;;;;;0.20;0.20;;;20.00;62.40;;;;;;4935012;29;20238;-75
2021/05/10 06:23:28;;;;;;;0.20;0.20;;;20.10;61.30;;;;;;4935220;29;20261;-76
2021/05/10 06:25:55;;;;;;;0.30;0.30;;;20.10;61.70;;;;;;4934903;29;20261;-75
2021/05/10 06:28:23;;;;;;;0.20;0.20;;;20.20;61.40;;;;;;4935072;29;20209;-75
2021/05/10 06:30:50;;;;;;;0.30;0.30;;;20.30;61.10;;;;;;4934850;29;20711;-75
2021/05/10 06:33:17;;;;;;;0.20;0.20;;;20.30;61.20;;;;;;4935105;29;20588;-75
2021/05/10 06:35:44;;;;;;;0.20;0.20;;;20.30;62.50;;;;;;4935058;29;20206;-75
2021/05/10 06:38:12;;;;;;;0.20;0.20;;;20.50;61.10;;;;;;4934874;29;20631;-75
2021/05/10 06:40:39;;;;;;;0.30;0.30;;;20.50;60.80;;;;;;4934761;29;20289;-75
2021/05/10 06:43:07;;;;;;;0.20;0.20;;;20.70;60.60;;;;;;4934812;29;20205;-76
2021/05/10 06:45:34;;;;;;;0.20;0.20;;;20.80;60.30;;;;;;4934808;29;20206;-76
2021/05/10 06:48:02;;;;;;;0.20;0.20;;;;;;;;;;4934826;29;20206;-75
2021/05/10 06:50:29;;;;;;;0.20;0.20;;;21.20;75.90;;;;;;4934661;29;20209;-76
2021/05/10 06:52:57;;;;;;;0.20;0.20;;;21.10;60.10;;;;;;4934970;29;20240;-76
2021/05/10 06:55:24;;;;;;;0.20;0.20;;;21.10;59.40;;;;;;4935014;29;20209;-75
2021/05/10 06:57:51;;;;;;;0.30;0.30;;;21.30;60.30;;;;;;4934804;29;20422;-76
2021/05/10 07:00:18;;;;;;;0.20;0.20;;;21.30;73.00;;;;;;4934562;29;20228;-75
2021/05/10 07:02:46;;;;;;;0.20;0.20;;;21.50;58.70;;;;;;4934606;29;20206;-75
2021/05/10 07:05:13;;;;;;;0.20;0.20;;;21.60;59.30;;;;;;4934924;29;20223;-75
2021/05/10 07:07:40;;;;;;;0.20;0.20;;;21.60;59.00;;;;;;4935010;29;20671;-75
2021/05/10 07:10:08;;;;;;;0.20;0.20;;;21.70;59.00;;;;;;4935643;29;20257;-75
2021/05/10 07:12:35;;;;;;;0.20;0.20;;;21.70;59.60;;;;;;4934632;29;20241;-75
2021/05/10 07:15:02;;;;;;;0.30;0.30;;;21.70;59.10;;;;;;4934934;29;20210;-75
2021/05/10 07:17:29;;;;;;;0.20;0.20;;;21.70;59.10;;;;;;4934546;29;20874;-75
2021/05/10 07:19:57;;;;;;;0.20;0.20;;;21.80;58.60;;;;;;4934288;29;20210;-75
2021/05/10 07:22:24;;;;;;;0.20;0.20;;;22.00;59.50;;;;;;4934417;29;20778;-75
2021/05/10 07:24:52;;;;;;;0.20;0.20;;;22.10;59.70;;;;;;4934658;29;20233;-73
2021/05/10 07:27:19;;;;;;;0.20;0.20;;;22.00;58.60;;;;;;4934724;29;20206;-74
2021/05/10 07:29:46;;;;;;;0.30;0.30;;;22.00;58.80;;;;;;4934646;29;20213;-74
2021/05/10 07:32:12;;;;;;;0.20;0.20;;;21.90;58.70;;;;;;4934345;29;20234;-74
2021/05/10 07:34:39;;;;;;;0.20;0.20;;;21.90;58.90;;;;;;4934554;29;20297;-76
2021/05/10 07:37:07;;;;;;;0.20;0.20;;;21.80;59.40;;;;;;4934911;29;20629;-76
2021/05/10 07:39:34;;;;;;;0.20;0.20;;;21.80;59.60;;;;;;4934327;29;20206;-74
2021/05/10 07:42:01;;;;;;;0.13;0.13;;;22.00;59.70;;;;;;4934511;29;20320;-75
2021/05/10 07:44:30;;;;;;;0.20;0.20;;;22.00;59.30;;;;;;4934455;29;20206;-74
2021/05/10 07:46:56;;;;;;;0.30;0.30;;;21.80;59.30;;;;;;4934411;29;20743;-76
2021/05/10 07:49:23;;;;;;;0.20;0.20;;;21.80;59.00;;;;;;4934182;29;20288;-76
2021/05/10 07:51:50;;;;;;;0.20;0.20;;;21.90;59.10;;;;;;4934577;29;20230;-76
2021/05/10 07:54:18;;;;;;;0.20;0.20;;;21.80;59.50;;;;;;4934217;29;20214;-75
2021/05/10 07:56:45;;;;;;;0.20;0.20;;;21.80;60.20;;;;;;4934704;29;20202;-74
2021/05/10 07:59:12;;;;;;;0.30;0.30;;;21.70;59.70;;;;;;4934375;29;20217;-74
2021/05/10 08:01:39;;;;;;;0.20;0.20;;;21.70;60.00;;;;;;4935301;29;20610;-75
2021/05/10 08:04:06;;;;;;;0.20;0.20;;;21.80;60.10;;;;;;4937433;29;20270;-74
2021/05/10 08:06:33;;;;;;;0.20;0.20;;;21.90;60.20;;;;;;4937537;29;20512;-74
2021/05/10 08:09:00;;;;;;;0.20;0.20;;;22.00;60.20;;;;;;4937300;29;20206;-74
2021/05/10 08:11:28;;;;;;;0.30;0.30;;;22.00;60.10;;;;;;4937673;29;20238;-75
2021/05/10 08:13:57;;;;;;;0.20;0.20;;;22.20;60.50;;;;;;4937320;29;20202;-75
2021/05/10 08:16:24;;;;;;;0.20;0.20;;;22.10;59.80;;;;;;4937206;29;20206;-74
2021/05/10 08:18:51;;;;;;;0.20;0.20;;;22.20;60.40;;;;;;4937231;29;20233;-74
2021/05/10 08:21:18;;;;;;;0.20;0.20;;;22.20;60.30;;;;;;4937406;29;20641;-74
2021/05/10 08:23:46;;;;;;;0.20;0.20;;;22.20;60.40;;;;;;4938278;29;20513;-75
2021/05/10 08:26:13;;;;;;;0.20;0.20;;;22.50;74.90;;;;;;4937240;29;20273;-74
2021/05/10 08:28:41;;;;;;;0.20;0.20;;;22.20;60.20;;;;;;4937336;29;20206;-75
2021/05/10 08:31:08;;;;;;;0.20;0.20;;;22.30;60.80;;;;;;4937063;29;20222;-75
2021/05/10 08:33:35;;;;;;;0.20;0.20;;;22.30;60.60;;;;;;4937142;29;20237;-74
2021/05/10 08:36:01;;;;;;;0.20;0.20;;;22.50;61.30;;;;;;4937628;29;20206;-74
2021/05/10 08:38:28;;;;;;;0.20;0.20;;;22.50;60.50;;;;;;4936880;29;20202;-74
2021/05/10 08:40:55;;;;;;;0.10;0.10;;;22.70;60.50;;;;;;4936468;29;20268;-74
2021/05/10 08:43:24;;;;;;;0.20;0.20;;;22.80;60.50;;;;;;4937312;29;20206;-75
2021/05/10 08:45:54;;;;;;;0.20;0.20;;;22.90;60.60;;;;;;4937137;29;20690;-74
2021/05/10 08:48:21;;;;;;;0.10;0.10;;;22.90;61.10;;;;;;4937145;29;20265;-76
2021/05/10 08:50:50;;;;;;;0.20;0.20;;;22.90;59.90;;;;;;4937171;29;20305;-75
2021/05/10 08:53:31;;;;;;;0.20;0.20;;;22.90;60.20;;;;;;4937126;29;20675;-75
2021/05/10 08:55:58;;;;;;;0.20;0.20;;;23.00;60.30;;;;;;4936805;29;20212;-75
2021/05/10 08:58:25;;;;;;;0.20;0.20;;;23.10;60.50;;;;;;4936902;29;20209;-75
2021/05/10 09:00:54;;;;;;;0.20;0.20;;;23.20;69.50;;;;;;4936247;29;20714;-75
2021/05/10 09:03:21;;;;;;;0.20;0.20;;;23.30;59.90;;;;;;4937268;29;20214;-75
2021/05/10 09:05:50;;;;;;;0.10;0.10;;;23.40;59.20;;;;;;4937076;29;20213;-75
2021/05/10 09:08:18;;;;;;;0.20;0.20;;;23.40;59.10;;;;;;4936687;29;20639;-74
2021/05/10 09:11:07;;;;;;;0.10;0.10;;;23.50;59.90;;;;;;4935890;29;20734;-75
2021/05/10 09:13:36;;;;;;;0.10;0.10;;;23.50;59.50;;;;;;4935738;29;20265;-75
2021/05/10 09:16:04;;;;;;;0.20;0.20;;;23.70;58.90;;;;;;4936641;29;20710;-75
2021/05/10 09:18:31;;;;;;;0.20;0.20;;;23.70;58.90;;;;;;4936670;29;20205;-75
2021/05/10 09:21:16;;;;;;;0.10;0.10;;;23.80;59.00;;;;;;4936067;29;20260;-75
2021/05/10 09:24:20;;;;;;;0.10;0.10;;;24.00;59.40;;;;;;4936309;29;20703;-75
2021/05/10 09:27:24;;;;;;;0.10;0.10;;;24.00;61.80;;;;;;4936637;29;20292;-75
2021/05/10 09:29:51;;;;;;;0.20;0.20;;;24.20;58.40;;;;;;4936086;29;20690;-75
2021/05/10 09:32:26;;;;;;;0.10;0.10;;;24.10;58.00;;;;;;4936219;29;20277;-75
2021/05/10 09:35:14;;;;;;;0.20;0.20;;;24.20;58.10;;;;;;4936414;29;20213;-75
2021/05/10 09:37:42;;;;;;;0.10;0.10;;;24.30;58.50;;;;;;4936209;29;20209;-75
2021/05/10 09:40:11;;;;;;;0.10;0.10;;;24.40;59.30;;;;;;4936197;29;20210;-76
2021/05/10 09:42:50;;;;;;;0.15;0.15;;;24.50;58.30;;;;;;4936006;29;20293;-75
2021/05/10 09:45:32;;;;;;;0.10;0.10;;;24.60;58.30;;;;;;4935971;29;20264;-75
2021/05/10 09:48:07;;;;;;;0.10;0.10;;;24.80;58.80;;;;;;4937138;29;20214;-74
2021/05/10 09:50:36;;;;;;;0.10;0.10;;;24.90;58.20;;;;;;4936890;29;20251;-74
2021/05/10 09:53:04;;;;;;;0.17;0.17;;;25.00;57.80;;;;;;4936964;29;20245;-77
2021/05/10 09:55:45;;;;;;;0.10;0.10;;;25.00;58.00;;;;;;4938064;29;20234;-74
2021/05/10 09:58:13;;;;;;;0.10;0.10;;;25.10;57.60;;;;;;4935420;29;20268;-75
2021/05/10 10:00:41;;;;;;;0.10;0.10;;;25.20;58.80;;;;;;4934777;29;20238;-74
2021/05/10 10:03:29;;;;;;;0.10;0.10;;;25.30;57.90;;;;;;4935501;29;20730;-74
2021/05/10 10:05:58;;;;;;;0.10;0.10;;;25.50;59.00;;;;;;4935199;29;20277;-74
2021/05/10 10:08:26;;;;;;;0.10;0.10;;;25.60;57.70;;;;;;4935572;29;20214;-75
2021/05/10 10:10:53;;;;;;;0.20;0.20;;;25.80;56.80;;;;;;4935161;29;20670;-75
2021/05/10 10:13:21;;;;;;;0.10;0.10;;;25.90;57.00;;;;;;4935526;29;20260;-75
2021/05/10 10:15:48;;;;;;;0.10;0.10;;;25.90;56.30;;;;;;4935330;29;20202;-74
2021/05/10 10:18:20;;;;;;;0.10;0.10;;;25.90;56.80;;;;;;4935415;29;20631;-74
2021/05/10 10:20:50;;;;;;;0.10;0.10;;;26.10;56.70;;;;;;4935010;29;20317;-74
2021/05/10 10:23:19;;;;;;;0.10;0.10;;;26.10;56.20;;;;;;4935439;29;20206;-74
2021/05/10 10:25:46;;;;;;;0.10;0.10;;;26.10;56.50;;;;;;5011372;23;20258;-78
2021/05/10 10:28:17;;;;;;;0.10;0.10;;;26.20;56.70;;;;;;5018062;28;20219;-78
2021/05/10 10:30:47;;;;;;;0.10;0.10;;;26.20;56.60;;;;;;5018539;28;20195;-78
2021/05/10 10:33:35;;;;;;;0.10;0.10;;;26.40;56.70;;;;;;5023154;28;20194;-77
2021/05/10 10:36:05;;;;;;;0.10;0.10;;;26.60;56.50;;;;;;5019110;28;20234;-78
2021/05/10 10:38:34;;;;;;;0.10;0.10;;;26.60;55.60;;;;;;5017784;28;20207;-78
2021/05/10 10:41:23;;;;;;;0.10;0.10;;;26.60;55.10;;;;;;5019673;28;20293;-77
2021/05/10 10:43:51;;;;;;;0.10;0.10;;;26.90;64.10;;;;;;5018852;28;20199;-79
2021/05/10 10:46:25;;;;;;;0.10;0.10;;;26.80;55.60;;;;;;5018405;28;20253;-79
2021/05/10 10:48:53;;;;;;;0.10;0.10;;;26.90;56.10;;;;;;5018534;28;20254;-78
2021/05/10 10:51:21;;;;;;;0.10;0.10;;;26.90;55.00;;;;;;5019429;28;20199;-77
2021/05/10 10:53:50;;;;;;;0.10;0.10;;;27.00;55.30;;;;;;5017808;28;20211;-78
2021/05/10 10:56:17;;;;;;;0.00;0.00;;;27.10;55.00;;;;;;5018671;28;20209;-78
2021/05/10 10:58:51;;;;;;;0.10;0.10;;;27.10;55.30;;;;;;5017630;28;20225;-78
2021/05/10 11:01:23;;;;;;;0.10;0.10;;;27.30;56.10;;;;;;5019219;28;20227;-77
2021/05/10 11:03:52;;;;;;;0.10;0.10;;;27.50;55.20;;;;;;5019808;28;20206;-79
2021/05/10 11:06:22;;;;;;;0.10;0.10;;;27.60;54.60;;;;;;5018374;28;20258;-79
2021/05/10 11:08:51;;;;;;;0.10;0.10;;;27.60;54.70;;;;;;5019398;28;20203;-79
2021/05/10 11:11:41;;;;;;;0.10;0.10;;;27.70;55.50;;;;;;5018966;28;20203;-79
2021/05/10 11:14:15;;;;;;;0.10;0.10;;;27.70;53.20;;;;;;5018477;28;20227;-79
2021/05/10 11:16:44;;;;;;;0.10;0.10;;;27.80;53.60;;;;;;5019742;28;20233;-77
2021/05/10 11:19:36;;;;;;;0.10;0.10;;;27.90;54.60;;;;;;5020390;28;20203;-79
2021/05/10 11:22:36;;;;;;;0.10;0.10;;;27.90;53.30;;;;;;5003413;28;20215;-78
2021/05/10 11:25:35;;;;;;;0.10;0.10;;;27.90;53.20;;;;;;5018204;28;20231;-78
2021/05/10 11:28:41;;;;;;;0.10;0.10;;;27.90;52.70;;;;;;5020058;28;20664;-79
2021/05/10 11:31:10;;;;;;;0.10;0.10;;;28.00;53.20;;;;;;4999530;28;20203;-79
2021/05/10 11:34:01;;;;;;;0.10;0.10;;;28.10;54.20;;;;;;5019494;28;20234;-79
2021/05/10 11:36:30;;;;;;;0.10;0.10;;;28.10;53.50;;;;;;5020461;28;20277;-78
2021/05/10 11:38:59;;;;;;;0.10;0.10;;;28.10;53.40;;;;;;5023243;28;20207;-78
2021/05/10 11:41:29;;;;;;;0.10;0.10;;;28.10;53.30;;;;;;5023070;28;20226;-79
2021/05/10 11:43:58;;;;;;;0.10;0.10;;;28.10;53.10;;;;;;5021477;28;20230;-79
2021/05/10 11:46:35;;;;;;;0.10;0.10;;;28.20;52.90;;;;;;5021139;28;20203;-78
2021/05/10 11:49:04;;;;;;;0.10;0.10;;;28.30;53.60;;;;;;5020329;28;20241;-78
2021/05/10 11:51:35;;;;;;;0.10;0.10;;;28.50;53.60;;;;;;5020926;28;20204;-78
2021/05/10 11:54:05;;;;;;;0.10;0.10;;;28.50;52.80;;;;;;5020763;28;20230;-79
2021/05/10 11:56:38;;;;;;;0.10;0.10;;;28.70;52.90;;;;;;5021642;28;20734;-79
2021/05/10 11:59:24;;;;;;;0.10;0.10;;;28.80;52.70;;;;;;5021827;28;20203;-78
2021/05/10 12:01:51;;;;;;;0.10;0.10;;;28.90;52.40;;;;;;5020541;28;20222;-79
2021/05/10 12:04:20;;;;;;;0.10;0.10;;;29.00;52.90;;;;;;5019517;28;20227;-79
2021/05/10 12:06:47;;;;;;;0.10;0.10;;;29.10;51.70;;;;;;5019107;28;20203;-78
2021/05/10 12:09:34;;;;;;;0.10;0.10;;;29.20;52.30;;;;;;5018566;28;20211;-78
2021/05/10 12:12:02;;;;;;;0.10;0.10;;;29.30;52.20;;;;;;5017546;28;20223;-78
2021/05/10 12:14:29;;;;;;;0.10;0.10;;;29.50;51.50;;;;;;5018531;28;20227;-77
2021/05/10 12:17:07;;;;;;;0.00;0.00;;;29.50;50.70;;;;;;5018801;28;20527;-78
2021/05/10 12:19:57;;;;;;;0.00;0.00;;;29.60;51.30;;;;;;5017431;28;20203;-77
2021/05/10 12:22:25;;;;;;;0.00;0.00;;;29.70;51.10;;;;;;5016664;28;20633;-77
2021/05/10 12:25:08;;;;;;;0.10;0.10;;;30.00;51.60;;;;;;5021833;28;20235;-77
2021/05/10 12:27:41;;;;;;;0.10;0.10;;;30.30;49.00;;;;;;5021141;28;20447;-78
2021/05/10 12:30:14;;;;;;;0.00;0.00;;;30.40;47.20;;;;;;5019247;28;20207;-76
2021/05/10 12:32:42;;;;;;;0.00;0.00;;;30.60;47.10;;;;;;4997265;28;20200;-78
2021/05/10 12:35:11;;;;;;;0.00;0.00;;;30.70;47.40;;;;;;4996154;28;20315;-78
2021/05/10 12:37:43;;;;;;;0.00;0.00;;;30.80;46.70;;;;;;5012476;28;20258;-78
2021/05/10 12:40:12;;;;;;;0.00;0.00;;;30.90;46.90;;;;;;5020430;28;20207;-79
2021/05/10 12:42:41;;;;;;;0.00;0.00;;;31.00;46.60;;;;;;5022471;28;20219;-79
2021/05/10 12:45:10;;;;;;;0.00;0.00;;;31.20;47.30;;;;;;5021831;28;20223;-78
2021/05/10 12:47:42;;;;;;;0.00;0.00;;;31.50;47.40;;;;;;5020455;28;20211;-77
2021/05/10 12:50:10;;;;;;;0.00;0.00;;;31.60;47.00;;;;;;5020202;28;20207;-78
2021/05/10 12:52:48;;;;;;;0.00;0.00;;;31.80;47.50;;;;;;5002544;28;20200;-78
2021/05/10 12:55:20;;;;;;;0.00;0.00;;;32.00;47.90;;;;;;5002273;28;20227;-77
2021/05/10 12:57:48;;;;;;;0.00;0.00;;;32.00;47.60;;;;;;5006566;28;20195;-78
2021/05/10 13:00:35;;;;;;;0.00;0.00;;;32.00;46.50;;;;;;5008469;28;20200;-79
2021/05/10 13:03:04;;;;;;;0.00;0.00;;;32.20;47.30;;;;;;5007797;28;20210;-78
2021/05/10 13:05:34;;;;;;;0.00;0.00;;;32.40;46.60;;;;;;5006875;28;20212;-78
2021/05/10 13:08:02;;;;;;;0.00;0.00;;;32.50;45.60;;;;;;5006559;28;20195;-79
2021/05/10 13:10:30;;;;;;;0.00;0.00;;;32.70;46.70;;;;;;5006481;28;20200;-79
2021/05/10 13:12:57;;;;;;;0.00;0.00;;;33.00;46.00;;;;;;5007796;28;20191;-79
2021/05/10 13:15:30;;;;;;;0.00;0.00;;;33.10;46.10;;;;;;5008668;28;20703;-80
2021/05/10 13:32:35;;;;;;;0.00;0.00;;;32.80;40.10;;;;;;4974904;28;20196;-79
2021/05/10 13:35:18;;;;;;;0.00;0.00;;;32.50;39.90;;;;;;4975267;28;20335;-79
2021/05/10 13:37:59;;;;;;;0.00;0.00;;;32.40;40.00;;;;;;4989264;28;20208;-79
2021/05/10 13:40:27;;;;;;;0.00;0.00;;;32.30;40.70;;;;;;4995946;28;20211;-79
2021/05/10 13:42:59;;;;;;;0.00;0.00;;;32.20;40.50;;;;;;4996105;28;20227;-78
2021/05/10 13:45:26;;;;;;;0.10;0.10;;;32.10;40.60;;;;;;4994759;28;20223;-78
2021/05/10 13:47:53;;;;;;;0.00;0.00;;;31.90;41.30;;;;;;4994970;28;20230;-79
2021/05/10 13:50:19;;;;;;;0.00;0.00;;;31.90;42.30;;;;;;4996289;28;20306;-78
2021/05/10 13:52:46;;;;;;;0.00;0.00;;;31.90;41.40;;;;;;4996717;28;20204;-75
2021/05/10 13:55:13;;;;;;;0.00;0.00;;;32.00;41.80;;;;;;4993380;28;20624;-73
2021/05/10 13:57:40;;;;;;;0.00;0.00;;;32.20;45.10;;;;;;4993423;28;20660;-73
2021/05/10 14:00:09;;;;;;;0.00;0.00;;;32.00;43.80;;;;;;4993205;28;20208;-73
2021/05/10 14:02:36;;;;;;;0.00;0.00;;;32.20;43.20;;;;;;4993220;28;20274;-72
2021/05/10 14:05:03;;;;;;;0.00;0.00;;;32.30;45.60;;;;;;4993125;28;20255;-72
2021/05/10 14:07:30;;;;;;;0.00;0.00;;;32.50;41.60;;;;;;4993127;28;20200;-72
2021/05/10 14:09:57;;;;;;;0.00;0.00;;;32.20;44.20;;;;;;4993521;28;20262;-72
2021/05/10 14:12:24;;;;;;;0.00;0.00;;;32.10;44.00;;;;;;4993482;28;20347;-72
2021/05/10 14:14:50;;;;;;;0.00;0.00;;;32.10;42.90;;;;;;4993106;28;20275;-71
2021/05/10 14:17:19;;;;;;;0.00;0.00;;;32.10;45.20;;;;;;4993180;28;20266;-71
2021/05/10 14:19:46;;;;;;;0.00;0.00;;;32.10;46.60;;;;;;4993240;28;20643;-70
2021/05/10 14:22:12;;;;;;;0.00;0.00;;;32.20;45.50;;;;;;4993148;28;20223;-72
2021/05/10 14:24:39;;;;;;;0.00;0.00;;;32.30;47.50;;;;;;4992780;28;20236;-72
2021/05/10 14:27:07;;;;;;;0.00;0.00;;;32.40;45.70;;;;;;4993596;28;20274;-72
2021/05/10 14:29:35;;;;;;;0.00;0.00;;;32.00;41.80;;;;;;4992770;28;20273;-72
2021/05/10 14:32:02;;;;;;;0.03;0.03;;;31.70;42.70;;;;;;4993170;28;20208;-71
2021/05/10 14:34:31;;;;;;;0.00;0.00;;;31.70;42.60;;;;;;4992585;28;20228;-71
2021/05/10 14:36:58;;;;;;;0.00;0.00;;;31.70;43.00;;;;;;4993075;28;20258;-71
2021/05/10 14:39:25;;;;;;;0.00;0.00;;;31.80;46.00;;;;;;4992901;28;20203;-72
2021/05/10 14:41:52;;;;;;;0.00;0.00;;;32.00;42.30;;;;;;4992867;28;20245;-71
2021/05/10 14:44:21;;;;;;;0.00;0.00;;;32.20;41.70;;;;;;4992327;28;20282;-71
2021/05/10 14:46:48;;;;;;;0.00;0.00;;;32.30;41.10;;;;;;4994918;28;20220;-78
2021/05/10 14:49:15;;;;;;;0.00;0.00;;;32.50;42.70;;;;;;4995463;28;20580;-77
2021/05/10 14:51:43;;;;;;;0.00;0.00;;;32.70;41.70;;;;;;4993783;28;20612;-73
2021/05/10 14:54:11;;;;;;;0.00;0.00;;;32.80;40.30;;;;;;4997589;28;20301;-73
2021/05/10 14:56:40;;;;;;;0.00;0.00;;;33.10;42.30;;;;;;4992684;28;20215;-77
2021/05/10 14:59:09;;;;;;;0.13;0.13;;;33.00;41.90;;;;;;5012145;28;20211;-74
2021/05/10 15:01:35;;;;;;;0.00;0.00;;;32.90;43.90;;;;;;5012448;28;20281;-75
2021/05/10 15:04:03;;;;;;;0.00;0.00;;;32.90;45.40;;;;;;5012406;28;20203;-79
2021/05/10 15:06:30;;;;;;;0.00;0.00;;;32.80;45.00;;;;;;5015066;28;20229;-78
2021/05/10 15:08:57;;;;;;;0.00;0.00;;;32.60;44.10;;;;;;5014765;28;20258;-78
2021/05/10 15:11:26;;;;;;;0.00;0.00;;;32.40;42.00;;;;;;5014860;28;20618;-78
2021/05/10 15:13:54;;;;;;;0.00;0.00;;;32.10;52.40;;;;;;5017719;28;20202;-78
2021/05/10 15:16:21;;;;;;;0.00;0.00;;;32.10;45.90;;;;;;4998280;28;20227;-78
2021/05/10 15:18:49;;;;;;;0.00;0.00;;;32.00;47.30;;;;;;4997608;28;20211;-77
2021/05/10 15:21:17;;;;;;;0.00;0.00;;;31.90;47.10;;;;;;4997347;28;20204;-79
2021/05/10 15:23:46;;;;;;;0.00;0.00;;;31.80;47.20;;;;;;4996815;28;20208;-78
2021/05/10 15:26:15;;;;;;;0.00;0.00;;;31.70;47.10;;;;;;4997834;28;20212;-78
2021/05/10 15:28:42;;;;;;;0.00;0.00;;;31.80;47.30;;;;;;5002058;28;20210;-78
2021/05/10 15:31:09;;;;;;;0.00;0.00;;;31.70;47.20;;;;;;5000564;28;20203;-79
2021/05/10 15:33:36;;;;;;;0.00;0.00;;;31.70;47.60;;;;;;4998013;28;20211;-78
2021/05/10 15:36:05;;;;;;;0.00;0.00;;;31.80;47.30;;;;;;4997126;28;20356;-81
2021/05/10 15:38:32;;;;;;;0.00;0.00;;;31.80;47.30;;;;;;4997204;28;20208;-79
2021/05/10 15:40:59;;;;;;;0.10;0.10;;;31.80;47.90;;;;;;4998867;28;20281;-81
2021/05/10 15:43:26;;;;;;;0.00;0.00;;;31.70;47.90;;;;;;4999419;28;20223;-78
2021/05/10 15:45:53;;;;;;;0.00;0.00;;;31.60;47.80;;;;;;5012691;28;20230;-79
2021/05/10 15:48:20;;;;;;;0.00;0.00;;;31.50;47.50;;;;;;5016641;28;20207;-80
2021/05/10 15:50:47;;;;;;;0.00;0.00;;;31.40;47.60;;;;;;5015941;28;20204;-79
2021/05/10 15:53:14;;;;;;;0.00;0.00;;;31.40;47.70;;;;;;5016101;28;20204;-79
2021/05/10 15:55:41;;;;;;;0.00;0.00;;;31.20;47.50;;;;;;5016223;28;20227;-79
2021/05/10 15:58:08;;;;;;;0.00;0.00;;;31.10;47.50;;;;;;5016017;28;20684;-79
2021/05/10 16:00:36;;;;;;;0.00;0.00;;;31.10;47.80;;;;;;5016263;28;20207;-78
2021/05/10 16:03:04;;;;;;;0.00;0.00;;;31.30;48.10;;;;;;5016162;28;20215;-78
2021/05/10 16:05:32;;;;;;;0.00;0.00;;;31.20;47.60;;;;;;5016071;28;20783;-78
2021/05/10 16:07:59;;;;;;;0.00;0.00;;;31.30;48.00;;;;;;5017071;28;20634;-80
2021/05/10 16:10:26;;;;;;;0.00;0.00;;;31.40;47.80;;;;;;5017345;28;20211;-78
2021/05/10 16:12:53;;;;;;;0.00;0.00;;;31.40;48.10;;;;;;5018352;28;20269;-78
2021/05/10 16:15:20;;;;;;;0.00;0.00;;;31.40;48.90;;;;;;5019041;28;20231;-78
2021/05/10 16:17:47;;;;;;;0.00;0.00;;;31.20;48.50;;;;;;5020773;28;20628;-78
2021/05/10 16:20:14;;;;;;;0.10;0.10;;;31.30;48.30;;;;;;5019971;28;20214;-79
2021/05/10 16:22:42;;;;;;;0.00;0.00;;;31.70;48.30;;;;;;5018688;28;20219;-78
2021/05/10 16:25:10;;;;;;;0.00;0.00;;;32.30;47.40;;;;;;5034302;23;20285;-75
2021/05/10 16:27:37;;;;;;;0.00;0.00;;;33.00;47.20;;;;;;4995284;28;20203;-76
2021/05/10 16:30:07;;;;;;;0.00;0.00;;;33.80;46.30;;;;;;4994938;28;20229;-77
2021/05/10 16:32:33;;;;;;;0.00;0.00;;;34.40;44.50;;;;;;4998087;28;20250;-77
2021/05/10 16:35:02;;;;;;;0.00;0.00;;;34.90;43.80;;;;;;4998372;28;20310;-77
2021/05/10 16:37:29;;;;;;;0.00;0.00;;;35.10;44.00;;;;;;4998065;28;20220;-77
2021/05/10 16:39:56;;;;;;;0.00;0.00;;;35.40;42.80;;;;;;4989928;28;20742;-77
2021/05/10 16:42:23;;;;;;;0.00;0.00;;;35.90;42.70;;;;;;4979099;28;20232;-79
2021/05/10 16:44:52;;;;;;;0.00;0.00;;;36.40;41.80;;;;;;4978474;28;20219;-76
2021/05/10 16:47:19;;;;;;;0.00;0.00;;;36.70;42.00;;;;;;4976397;28;20212;-75
2021/05/10 16:49:46;;;;;;;0.00;0.00;;;37.10;40.80;;;;;;4977879;28;20780;-76
2021/05/10 16:52:15;;;;;;;0.00;0.00;;;37.10;40.60;;;;;;4975641;28;20208;-77
2021/05/10 16:54:43;;;;;;;0.00;0.00;;;36.70;45.30;;;;;;4980553;28;20848;-77
2021/05/10 16:57:10;;;;;;;0.00;0.00;;;36.60;40.00;;;;;;4976487;28;20258;-76
2021/05/10 16:59:37;;;;;;;0.00;0.00;;;36.80;40.10;;;;;;4984531;28;20196;-75
2021/05/10 17:02:04;;;;;;;0.00;0.00;;;36.80;40.80;;;;;;4983418;28;20792;-76
2021/05/10 17:04:31;;;;;;;0.00;0.00;;;36.60;46.70;;;;;;4984952;28;20283;-76
2021/05/10 17:06:58;;;;;;;0.00;0.00;;;36.60;41.70;;;;;;4984998;28;20571;-76
2021/05/10 17:09:25;;;;;;;0.00;0.00;;;36.40;41.30;;;;;;4985434;28;20583;-75
2021/05/10 17:11:52;;;;;;;0.00;0.00;;;36.40;41.40;;;;;;4984174;28;20239;-76
2021/05/10 17:14:19;;;;;;;0.00;0.00;;;36.50;41.00;;;;;;4984125;28;20199;-76
2021/05/10 17:16:46;;;;;;;0.00;0.00;;;36.30;41.40;;;;;;4985429;28;20215;-75
2021/05/10 17:19:14;;;;;;;0.00;0.00;;;36.10;42.10;;;;;;4983975;28;20665;-75
2021/05/10 17:21:41;;;;;;;0.00;0.00;;;35.80;42.20;;;;;;4986420;28;20327;-74
2021/05/10 17:24:09;;;;;;;0.00;0.00;;;35.20;42.60;;;;;;4983085;28;20283;-74
2021/05/10 17:26:37;;;;;;;0.00;0.00;;;34.50;43.40;;;;;;4983584;28;20219;-73
2021/05/10 17:29:04;;;;;;;0.00;0.00;;;33.80;44.40;;;;;;4984883;28;20534;-74